Time;durP1;ratioP1;P1;durP2;ratioP2;P2;SDS_P1;SDS_P2;PMS_P1;PMS_P2;Temp;Humidity;BMP_temperature;BMP_pressure;BME280_temperature;BME280_humidity;BME280_pressure;Samples;Min_cycle;Max_cycle;Signal;HPM_P1;HPM_P2
2022/04/04 00:06:45;;;;;;;14.60;7.60;;;;;;;-2.26;53.17;99333.27;446788;1269;219871;-58
2022/04/04 00:16:51;;;;;;;14.00;6.80;;;;;;;-2.12;53.34;99322.07;447615;1269;142072;-58
2022/04/04 00:26:57;;;;;;;12.50;7.10;;;;;;;-2.07;53.74;99314.45;431880;1270;198279;-53
2022/04/04 00:37:03;;;;;;;9.60;6.30;;;;;;;-1.95;54.10;99307.75;446038;1269;142119;-56
2022/04/04 00:47:09;;;;;;;11.70;6.80;;;;;;;-1.81;54.24;99298.06;447690;1270;141805;-56
2022/04/04 00:57:16;;;;;;;10.60;6.70;;;;;;;-1.66;54.25;99289.02;447387;1269;142139;-57
2022/04/04 01:07:22;;;;;;;12.90;6.80;;;;;;;-1.59;54.45;99276.19;446824;1269;144936;-57
2022/04/04 01:17:28;;;;;;;8.50;5.90;;;;;;;-1.60;54.65;99269.70;441955;1269;194102;-55
2022/04/04 01:27:34;;;;;;;9.20;5.60;;;;;;;-1.89;54.85;99258.73;430500;1269;140913;-56
2022/04/04 01:37:40;;;;;;;8.60;5.80;;;;;;;-2.27;55.72;99255.11;435137;1270;141864;-56
2022/04/04 01:47:46;;;;;;;11.80;6.40;;;;;;;-2.57;56.45;99250.10;439551;1267;141922;-57
2022/04/04 01:57:52;;;;;;;9.60;5.50;;;;;;;-2.77;57.08;99242.36;446871;1269;143023;-58
2022/04/04 02:07:58;;;;;;;10.10;6.40;;;;;;;-2.91;57.66;99238.61;447573;1270;141492;-56
2022/04/04 02:18:03;;;;;;;8.60;6.40;;;;;;;-3.01;58.42;99225.23;447719;1269;143289;-58
2022/04/04 02:28:09;;;;;;;7.80;5.50;;;;;;;-3.03;58.94;99211.02;446877;1269;144632;-56
2022/04/04 02:38:15;;;;;;;8.80;5.60;;;;;;;-3.08;59.57;99208.20;447523;1270;142457;-58
2022/04/04 02:48:21;;;;;;;9.30;6.80;;;;;;;-3.05;59.95;99200.45;447519;1270;141549;-57
2022/04/04 02:58:27;;;;;;;13.40;7.30;;;;;;;-2.84;60.41;99197.90;446776;1269;141857;-57
2022/04/04 03:08:33;;;;;;;11.20;7.30;;;;;;;-2.62;60.34;99190.71;447593;1270;142076;-57
2022/04/04 03:18:39;;;;;;;10.50;7.90;;;;;;;-2.43;60.53;99181.30;446720;1270;141979;-57
2022/04/04 03:28:44;;;;;;;;;;;;;;;-2.23;60.23;99177.86;445557;1270;141863;-57
2022/04/04 03:38:49;;;;;;;8.60;7.10;;;;;;;-2.07;60.32;99168.16;447844;1270;129090;-57
2022/04/04 03:48:56;;;;;;;10.80;6.10;;;;;;;-1.95;60.10;99172.89;446633;1270;142992;-58
2022/04/04 03:59:02;;;;;;;8.40;5.50;;;;;;;-1.84;60.09;99164.79;447796;1269;141476;-58
2022/04/04 04:09:07;;;;;;;6.00;5.40;;;;;;;-1.74;60.27;99158.91;447755;1269;203143;-58
2022/04/04 04:29:33;;;;;;;9.00;5.80;;;;;;;-1.45;60.35;99154.20;447619;1269;196646;-57
2022/04/04 04:39:39;;;;;;;10.40;6.60;;;;;;;-1.30;60.30;99148.70;446596;1270;142308;-57
2022/04/04 04:49:45;;;;;;;6.70;5.20;;;;;;;-1.20;60.71;99149.36;447457;1270;142237;-57
2022/04/04 04:59:51;;;;;;;10.20;6.90;;;;;;;-1.18;61.89;99147.42;447620;1270;142808;-58
2022/04/04 05:09:56;;;;;;;8.60;6.30;;;;;;;-1.20;63.07;99151.92;446790;1269;142112;-58
2022/04/04 05:20:02;;;;;;;9.20;6.50;;;;;;;-1.16;63.74;99152.34;447611;1269;142072;-58
2022/04/04 05:30:10;;;;;;;8.70;6.00;;;;;;;-1.03;64.09;99144.51;447473;1270;142149;-58
2022/04/04 05:40:16;;;;;;;11.50;8.10;;;;;;;-0.83;64.25;99142.46;446715;1270;144270;-58
2022/04/04 05:50:21;;;;;;;14.10;8.70;;;;;;;-0.58;63.92;99139.98;447465;1270;143047;-58
2022/04/04 06:00:28;;;;;;;10.70;7.20;;;;;;;-0.41;63.92;99143.65;438728;1270;141796;-55
2022/04/04 06:10:33;;;;;;;9.70;7.30;;;;;;;-0.23;63.72;99146.29;434075;1270;142848;-52
2022/04/04 06:20:39;;;;;;;11.00;7.40;;;;;;;0.08;63.65;99144.23;439404;1270;143306;-57
2022/04/04 06:30:45;;;;;;;11.90;6.90;;;;;;;1.85;62.86;99135.58;446966;1269;143202;-58
2022/04/04 06:40:52;;;;;;;8.20;7.00;;;;;;;3.92;59.43;99125.55;447198;1270;142178;-57
2022/04/04 06:50:59;;;;;;;12.80;7.60;;;;;;;4.43;57.68;99125.88;447536;1270;141783;-58
2022/04/04 07:01:05;;;;;;;13.70;7.20;;;;;;;8.91;55.00;99114.98;443272;1269;142574;-57
2022/04/04 07:11:13;;;;;;;5.80;5.30;;;;;;;15.53;47.24;99098.98;444996;1269;141938;-58
2022/04/04 07:21:19;;;;;;;5.60;4.50;;;;;;;16.98;41.44;99089.55;441624;1270;141886;-59
2022/04/04 07:31:25;;;;;;;9.10;4.40;;;;;;;20.29;38.50;99073.45;446594;1270;142549;-64
2022/04/04 07:41:31;;;;;;;6.60;3.30;;;;;;;19.18;33.93;99061.91;447482;1269;145655;-60
2022/04/04 07:51:37;;;;;;;7.30;3.60;;;;;;;14.09;36.27;99062.36;446843;1269;142031;-68
2022/04/04 08:01:43;;;;;;;8.60;3.90;;;;;;;12.41;38.13;99058.45;446228;1270;142120;-67
2022/04/04 08:11:50;;;;;;;15.20;3.90;;;;;;;13.58;37.21;99047.23;447572;1269;144055;-67
2022/04/04 08:21:56;;;;;;;4.50;4.10;;;;;;;13.77;36.25;99032.67;446729;1270;142248;-68
2022/04/04 08:32:02;;;;;;;5.40;3.40;;;;;;;11.75;37.50;99028.28;447627;1269;142984;-61
2022/04/04 08:42:09;;;;;;;5.10;3.20;;;;;;;10.73;38.50;99017.06;447699;1270;141936;-64
2022/04/04 08:52:16;;;;;;;2.40;2.20;;;;;;;9.00;40.40;99003.96;446927;1269;142508;-65
2022/04/04 09:02:22;;;;;;;4.00;3.50;;;;;;;8.14;41.80;99000.16;447627;1269;142116;-68
2022/04/04 09:12:28;;;;;;;10.80;4.10;;;;;;;8.58;42.13;98985.52;447491;1269;141915;-61
2022/04/04 09:22:33;;;;;;;6.10;4.80;;;;;;;9.07;42.26;98967.48;447674;1269;142088;-62
2022/04/04 09:32:41;;;;;;;3.90;3.50;;;;;;;8.59;42.52;98951.46;441980;1268;141339;-60
2022/04/04 09:43:01;;;;;;;5.30;3.70;;;;;;;9.04;42.37;98935.39;440704;1269;140979;-69
2022/04/04 09:53:08;;;;;;;8.50;3.70;;;;;;;8.72;41.99;98927.43;447777;1269;142267;-65
2022/04/04 10:03:16;;;;;;;4.30;3.70;;;;;;;7.92;42.78;98917.19;447836;1269;141899;-71
2022/04/04 10:13:23;;;;;;;5.20;4.60;;;;;;;7.14;43.74;98904.40;447066;1269;141227;-72
2022/04/04 10:23:31;;;;;;;6.80;4.80;;;;;;;6.78;44.49;98885.31;447852;1269;140513;-69
2022/04/04 10:33:37;;;;;;;3.70;3.40;;;;;;;7.07;44.76;98878.02;438232;1269;141175;-64
2022/04/04 10:43:47;;;;;;;7.50;4.50;;;;;;;7.20;44.66;98867.20;431596;1271;140898;-67
2022/04/04 10:53:54;;;;;;;5.80;4.40;;;;;;;6.83;44.82;98856.52;447811;1269;141071;-64
2022/04/04 11:04:01;;;;;;;4.10;3.80;;;;;;;6.47;45.37;98840.36;447011;1269;141366;-63
2022/04/04 11:14:09;;;;;;;5.40;3.90;;;;;;;6.55;45.42;98835.02;447766;1268;140893;-60
2022/04/04 11:24:17;;;;;;;4.10;3.60;;;;;;;6.77;45.28;98818.95;447728;1269;141896;-64
2022/04/04 11:34:27;;;;;;;4.70;4.10;;;;;;;7.09;44.92;98798.72;443613;1269;140522;-63
2022/04/04 11:44:37;;;;;;;4.10;3.70;;;;;;;7.64;43.97;98784.14;447732;1269;141431;-66
2022/04/04 11:54:44;;;;;;;4.50;4.10;;;;;;;7.74;43.33;98764.64;446957;1268;141394;-73
2022/04/04 12:04:51;;;;;;;5.70;3.80;;;;;;;7.94;42.24;98745.42;441958;1269;251502;-67
2022/04/04 12:14:57;;;;;;;4.10;3.50;;;;;;;8.08;41.66;98720.10;432100;1270;141073;-68
2022/04/04 12:25:04;;;;;;;4.70;3.00;;;;;;;8.09;40.86;98698.96;446326;1268;197769;-71
2022/04/04 12:35:11;;;;;;;5.80;2.90;;;;;;;8.43;40.54;98672.04;442867;1269;143347;-75
2022/04/04 12:45:19;;;;;;;3.70;3.20;;;;;;;8.32;39.29;98646.95;441205;1268;140635;-76
2022/04/04 12:55:25;;;;;;;7.90;4.30;;;;;;;8.19;39.38;98627.64;433266;1269;140752;-77
2022/04/04 13:05:31;;;;;;;11.60;3.90;;;;;;;8.23;39.02;98605.45;440133;1270;139946;-74
2022/04/04 13:15:38;;;;;;;6.40;3.00;;;;;;;8.12;38.97;98582.29;433686;1270;140937;-74
2022/04/04 13:25:46;;;;;;;2.30;2.10;;;;;;;8.10;39.08;98566.92;437002;1270;140319;-71
2022/04/04 13:35:52;;;;;;;3.40;1.80;;;;;;;7.99;38.47;98543.45;435316;1270;140914;-69
2022/04/04 13:45:58;;;;;;;7.50;2.90;;;;;;;7.97;38.62;98517.95;437095;1270;142574;-68
2022/04/04 13:56:05;;;;;;;5.80;3.30;;;;;;;8.00;39.32;98504.50;440841;1270;141309;-69
2022/04/04 14:06:11;;;;;;;3.20;2.10;;;;;;;8.02;39.22;98477.32;447698;1269;143804;-68
2022/04/04 14:16:18;;;;;;;3.30;2.30;;;;;;;8.06;38.53;98451.44;446933;1267;141538;-66
2022/04/04 14:26:25;;;;;;;3.80;1.60;;;;;;;7.83;38.32;98436.33;447620;1267;142322;-66
2022/04/04 14:36:31;;;;;;;4.90;2.60;;;;;;;7.66;38.49;98417.02;445921;1270;144787;-61
2022/04/04 14:46:37;;;;;;;3.20;2.70;;;;;;;7.34;38.73;98399.50;445914;1269;213363;-63
2022/04/04 14:56:44;;;;;;;6.10;3.30;;;;;;;7.23;39.06;98381.27;440295;1270;140921;-64
2022/04/04 15:06:50;;;;;;;3.50;3.10;;;;;;;6.98;39.47;98362.63;430391;1270;140208;-64
2022/04/04 15:16:56;;;;;;;5.10;3.40;;;;;;;6.73;39.91;98350.80;437960;1269;146810;-62
2022/04/04 15:27:03;;;;;;;3.90;3.20;;;;;;;6.62;40.13;98333.45;430825;1270;139675;-63
2022/04/04 15:37:16;;;;;;;3.90;2.10;;;;;;;6.59;39.69;98319.21;444458;1269;140822;-64
2022/04/04 15:47:23;;;;;;;6.50;3.40;;;;;;;6.37;39.34;98297.55;437273;1269;141551;-63
2022/04/04 15:57:29;;;;;;;3.80;3.10;;;;;;;6.10;39.82;98286.98;430672;1270;141656;-62
2022/04/04 16:07:35;;;;;;;4.80;3.20;;;;;;;5.87;40.65;98271.45;431980;1270;141734;-61
2022/04/04 16:17:41;;;;;;;5.50;3.80;;;;;;;5.67;40.48;98251.17;447585;1270;141050;-63
2022/04/04 16:27:48;;;;;;;6.70;3.10;;;;;;;5.54;40.78;98240.98;434881;1270;140611;-64
2022/04/04 16:37:53;;;;;;;5.00;3.40;;;;;;;5.40;40.80;98228.27;447918;1270;141871;-62
2022/04/04 16:48:00;;;;;;;5.20;3.30;;;;;;;5.24;41.60;98207.44;443777;1270;141575;-60
2022/04/04 16:58:06;;;;;;;7.00;4.40;;;;;;;5.05;42.09;98180.16;442938;1270;141032;-61
2022/04/04 17:08:15;;;;;;;6.90;4.30;;;;;;;4.88;42.54;98158.55;447898;1269;141259;-62
2022/04/04 17:18:21;;;;;;;6.00;3.90;;;;;;;4.72;42.97;98137.34;447635;1270;142293;-62
2022/04/04 17:28:29;;;;;;;5.60;3.90;;;;;;;4.62;43.48;98119.42;447156;1270;140570;-62
2022/04/04 17:38:35;;;;;;;5.80;4.90;;;;;;;4.56;43.54;98106.09;444460;1270;140960;-61
2022/04/04 17:48:40;;;;;;;7.00;5.90;;;;;;;4.52;43.75;98103.27;440750;1269;141164;-62
2022/04/04 17:58:46;;;;;;;5.20;4.50;;;;;;;4.50;43.69;98095.71;442250;1268;140560;-63
2022/04/04 18:08:52;;;;;;;7.80;4.80;;;;;;;4.50;43.42;98088.63;439763;1270;142236;-62
2022/04/04 18:19:05;;;;;;;8.40;5.00;;;;;;;4.54;43.10;98086.14;446988;1270;141177;-62
2022/04/04 18:29:11;;;;;;;12.30;6.00;;;;;;;4.56;43.23;98075.59;447838;1269;140709;-61
2022/04/04 18:39:17;;;;;;;5.70;4.00;;;;;;;4.49;44.58;98061.66;447577;1270;140903;-61
2022/04/04 18:49:23;;;;;;;33.30;6.30;;;;;;;4.41;45.13;98053.15;446739;1269;140445;-62
2022/04/04 18:59:29;;;;;;;3.40;2.60;;;;;;;4.29;45.87;98031.54;447334;1270;141551;-62
2022/04/04 19:09:34;;;;;;;7.50;4.80;;;;;;;4.23;45.80;98008.41;441649;1271;151441;-61
2022/04/04 19:19:41;;;;;;;9.50;5.40;;;;;;;4.16;46.13;98008.81;437563;1271;142053;-61
2022/04/04 19:29:47;;;;;;;5.10;3.60;;;;;;;4.04;46.54;97988.63;447121;1271;140769;-61
2022/04/04 19:39:54;;;;;;;9.00;3.00;;;;;;;3.98;47.04;97970.10;446287;1271;142025;-61
2022/04/04 19:50:01;;;;;;;8.60;5.10;;;;;;;3.89;47.59;97967.70;447379;1270;141082;-62
2022/04/04 20:00:09;;;;;;;9.70;4.20;;;;;;;3.77;48.45;97939.04;444549;1271;140548;-61
2022/04/04 20:10:14;;;;;;;6.10;4.10;;;;;;;3.68;49.02;97915.34;438101;1270;141251;-62
2022/04/04 20:20:20;;;;;;;12.60;4.70;;;;;;;3.68;48.64;97896.83;442629;1270;146810;-63
2022/04/04 20:30:26;;;;;;;11.90;3.80;;;;;;;3.63;49.10;97878.25;447368;1269;143421;-62
2022/04/04 20:40:32;;;;;;;6.50;3.80;;;;;;;3.59;49.41;97857.77;447227;1270;141394;-62
2022/04/04 20:50:38;;;;;;;6.40;3.50;;;;;;;3.52;49.50;97840.38;447389;1270;141178;-64
2022/04/04 21:00:44;;;;;;;8.50;5.30;;;;;;;3.46;49.66;97834.20;446493;1269;140641;-60
2022/04/04 21:10:50;;;;;;;5.60;4.10;;;;;;;3.35;50.18;97822.38;445103;1270;141104;-59
2022/04/04 21:20:55;;;;;;;8.10;4.90;;;;;;;3.34;50.61;97817.25;434288;1270;140946;-60
2022/04/04 21:31:01;;;;;;;10.10;5.10;;;;;;;3.33;50.93;97815.77;446529;1270;142483;-60
2022/04/04 21:41:07;;;;;;;17.90;6.70;;;;;;;3.32;51.55;97805.97;447462;1269;142441;-60
2022/04/04 21:51:13;;;;;;;7.80;5.40;;;;;;;3.24;53.20;97796.83;447617;1268;141833;-60
2022/04/04 22:01:19;;;;;;;8.00;5.40;;;;;;;2.74;57.82;97788.11;446890;1269;140550;-59
2022/04/04 22:11:25;;;;;;;7.80;7.10;;;;;;;2.17;61.02;97788.19;447752;1269;141469;-58
2022/04/04 22:21:31;;;;;;;9.90;6.40;;;;;;;1.78;62.77;97789.34;447294;1268;141438;-59
2022/04/04 22:31:37;;;;;;;7.50;6.80;;;;;;;1.40;64.49;97775.90;447365;1269;207375;-59
2022/04/04 22:41:43;;;;;;;7.20;6.50;;;;;;;1.11;65.89;97780.61;444134;1269;145603;-59
2022/04/04 22:51:49;;;;;;;8.70;7.90;;;;;;;0.92;67.51;97766.31;445684;1269;142453;-59
2022/04/04 23:01:55;;;;;;;7.40;6.80;;;;;;;0.79;68.52;97754.23;447732;1269;142284;-59
2022/04/04 23:12:00;;;;;;;9.50;6.90;;;;;;;0.79;69.58;97740.30;447679;1270;142117;-58
2022/04/04 23:22:06;;;;;;;8.10;7.30;;;;;;;0.77;70.35;97711.64;446986;1269;141595;-58
2022/04/04 23:32:12;;;;;;;8.20;7.40;;;;;;;0.77;70.67;97711.30;447671;1268;142454;-60
2022/04/04 23:42:18;;;;;;;7.20;6.60;;;;;;;0.73;70.76;97711.83;447633;1269;141836;-61
2022/04/04 23:52:25;;;;;;;6.90;6.30;;;;;;;0.67;71.50;97695.94;446792;1269;142711;-59
